Terminal Aerodrome Forecast
Issued by NWS Nashville, TN

Home | Current Version | Previous Version | Text Only | Print | Product List | Glossary On
Versions: 1 2 3 4 5 6 7 8 9 10 11 12 13 14 15 16 17 18 19 20 21 22 23 24 25 26 27 28 29 30 31 32 33 34 35 36
000
FTUS44 KOHX 190818 AAA
TAFBNA
TAF AMD
KBNA 190818Z 1908/2006 17006KT P6SM OVC025
     FM190900 32012KT 6SM BR VCSH OVC008
     FM191400 34012G22KT 4SM -RA BR OVC004
     FM191900 35013G24KT 2SM RA BR OVC008
     FM200000 33015G28KT 4SM -RA BR OVC008=

USA.gov is the U.S. government's official web portal to all federal, state and local government web resources and services.